Aviation Digital Data Service (ADDS)

Output produced by METARs form (1907 UTC 25 June 2017)
found at http://www.aviationweather.gov/adds/metars/
 
MSLP 251850Z 20003KT9999 SCT027 32/26 Q1011 A2986
TAF MSLP 251525Z 2518/2618 22008KT 9999 SCT023 FEW037CB TX32/2518Z TN23/2610Z 
     TEMPO 2520/2524 TS 
     FM260000 VRB02KT FEW023 FEW37CB SCT060 
     TEMPO 2604/2607 0406G20KT 2000 +TSRA BKN023 BKN033CB OVC043 
     BECMG 2607/2609 04005KT 9999 RA FEW023 FEW040CB BKN060 
     FM260900 FEW023 SCT060
       
MSSS 251850Z 14004KT 9999 SCT027 29/23 Q1016 A3000
TAF MSSS 251525Z 2518/2618 13008KT 9999 SCT033 FEW40CB TX29/2520Z TN21/2612Z 
     TEMPO 2603/2606 34012KT 5000 TSRA BKN027 SCT040CB 
     FM260600 00000KT 9999 SCT020 
     TEMPO 2611/2614 1000 FG OVC010 
     FM261400 12005KT 9999 SCT027